createdAt,value
2023-03-13T00:01:36.357Z,11.88
2023-03-13T00:04:03.386Z,14.68
2023-03-13T00:06:34.096Z,11.77
2023-03-13T00:09:02.588Z,14.90
2023-03-13T00:11:30.010Z,16.25
2023-03-13T00:14:00.051Z,13.55
2023-03-13T00:16:28.259Z,19.50
2023-03-13T00:19:09.040Z,14.73
2023-03-13T00:21:41.269Z,22.50
2023-03-13T00:24:10.766Z,17.90
2023-03-13T00:26:39.911Z,15.98
2023-03-13T00:29:07.408Z,18.20
2023-03-13T00:31:34.927Z,18.17
2023-03-13T00:34:03.426Z,12.82
2023-03-13T00:36:35.204Z,13.15
2023-03-13T00:39:04.455Z,16.92
2023-03-13T00:41:33.306Z,11.93
2023-03-13T00:44:00.378Z,19.85
2023-03-13T00:46:29.164Z,16.58
2023-03-13T00:49:09.365Z,15.80
2023-03-13T00:51:36.752Z,16.30
2023-03-13T00:54:10.077Z,10.00
2023-03-13T00:56:37.406Z,7.18
2023-03-13T00:59:06.182Z,14.20
2023-03-13T01:01:35.297Z,13.10
2023-03-13T01:04:06.531Z,10.85
2023-03-13T01:06:36.150Z,12.23
2023-03-13T01:09:05.290Z,9.55
2023-03-13T01:11:35.481Z,9.23
2023-03-13T01:14:05.647Z,7.30
2023-03-13T01:16:35.325Z,8.65
2023-03-13T01:19:06.255Z,8.73
2023-03-13T01:21:33.096Z,6.95
2023-03-13T01:24:02.006Z,9.02
2023-03-13T01:26:29.536Z,6.80
2023-03-13T01:28:57.053Z,7.60
2023-03-13T01:31:31.177Z,11.60
2023-03-13T01:34:01.038Z,10.13
2023-03-13T01:36:29.646Z,9.65
2023-03-13T01:38:58.773Z,12.18
2023-03-13T01:41:28.896Z,8.65
2023-03-13T01:43:56.306Z,9.55
2023-03-13T01:46:30.136Z,12.15
2023-03-13T01:49:35.874Z,13.27
2023-03-13T01:52:32.306Z,10.82
2023-03-13T01:55:19.923Z,14.88
2023-03-13T01:57:53.148Z,19.10
2023-03-13T02:00:25.314Z,21.23
2023-03-13T02:02:57.082Z,14.98
2023-03-13T02:05:27.177Z,18.80
2023-03-13T02:08:01.200Z,15.55
2023-03-13T02:10:31.542Z,18.73
2023-03-13T02:13:01.196Z,16.40
2023-03-13T02:15:29.522Z,12.80
2023-03-13T02:17:57.486Z,11.07
2023-03-13T02:20:25.822Z,12.80
2023-03-13T02:23:11.045Z,15.57
2023-03-13T02:25:42.473Z,18.98
2023-03-13T02:28:24.642Z,13.98
2023-03-13T02:30:55.573Z,15.10
2023-03-13T02:33:26.431Z,16.08
2023-03-13T02:35:55.072Z,14.95
2023-03-13T02:38:27.411Z,17.60
2023-03-13T02:40:56.959Z,14.55
2023-03-13T02:43:35.983Z,16.75
2023-03-13T02:46:11.429Z,17.15
2023-03-13T02:48:47.348Z,14.45
2023-03-13T02:51:32.738Z,17.65
2023-03-13T02:54:04.245Z,22.60
2023-03-13T02:56:34.696Z,17.80
2023-03-13T02:59:02.136Z,14.95
2023-03-13T03:01:29.616Z,12.73
2023-03-13T03:03:56.839Z,14.95
2023-03-13T03:06:24.916Z,15.18
2023-03-13T03:08:53.196Z,16.17
2023-03-13T03:11:20.248Z,12.55
2023-03-13T03:13:52.072Z,25.02
2023-03-13T03:16:19.893Z,12.85
2023-03-13T03:18:47.179Z,20.27
2023-03-13T03:21:14.184Z,13.52
2023-03-13T03:23:47.368Z,18.60
2023-03-13T03:26:14.416Z,15.60
2023-03-13T03:28:41.500Z,11.70
2023-03-13T03:31:14.803Z,9.88
2023-03-13T03:33:42.944Z,13.80
2023-03-13T03:36:15.380Z,14.80
2023-03-13T03:38:44.545Z,7.25
2023-03-13T03:41:14.680Z,8.55
2023-03-13T03:43:42.173Z,7.88
2023-03-13T03:46:12.131Z,13.20
2023-03-13T03:48:39.195Z,10.23
2023-03-13T03:51:09.776Z,17.90
2023-03-13T03:53:40.631Z,17.23
2023-03-13T03:56:10.128Z,14.70
2023-03-13T03:58:42.747Z,15.38
2023-03-13T04:01:20.162Z,12.57
2023-03-13T04:03:48.551Z,14.60
2023-03-13T04:06:16.628Z,17.20
2023-03-13T04:08:44.827Z,11.55
2023-03-13T04:11:15.117Z,13.05
2023-03-13T04:13:48.294Z,11.18
2023-03-13T04:16:15.671Z,12.27
2023-03-13T04:18:43.842Z,12.68
2023-03-13T04:21:11.393Z,18.38
2023-03-13T04:23:45.596Z,11.50
2023-03-13T04:26:14.314Z,19.48
2023-03-13T04:28:41.897Z,16.58
2023-03-13T04:31:11.623Z,13.02
2023-03-13T04:34:04.048Z,9.98
2023-03-13T04:36:51.189Z,8.27
2023-03-13T04:39:36.852Z,18.02
2023-03-13T04:42:11.657Z,13.00
2023-03-13T04:45:05.070Z,12.88
2023-03-13T04:47:52.555Z,14.48
2023-03-13T04:50:38.099Z,15.70
2023-03-13T04:53:11.876Z,10.93
2023-03-13T04:55:50.201Z,16.95
2023-03-13T04:58:35.914Z,13.98
2023-03-13T05:01:29.726Z,15.07
2023-03-13T05:04:17.198Z,18.40
2023-03-13T05:07:02.854Z,6.53
2023-03-13T05:09:47.426Z,10.43
2023-03-13T05:12:32.801Z,15.88
2023-03-13T05:15:07.113Z,12.23
2023-03-13T05:17:46.113Z,13.18
2023-03-13T05:20:19.106Z,12.20
2023-03-13T05:23:12.658Z,8.32
2023-03-13T05:25:47.579Z,11.65
2023-03-13T05:28:14.620Z,12.45
2023-03-13T05:31:07.688Z,16.33
2023-03-13T05:33:53.453Z,8.35
2023-03-13T05:36:20.260Z,17.20
2023-03-13T05:39:19.685Z,15.07
2023-03-13T05:42:05.381Z,9.95
2023-03-13T05:44:45.696Z,15.73
2023-03-13T05:47:37.028Z,12.68
2023-03-13T05:50:04.456Z,13.43
2023-03-13T05:52:39.761Z,12.43
2023-03-13T05:55:25.705Z,12.85
2023-03-13T05:58:11.244Z,15.90
2023-03-13T06:00:51.868Z,19.50
2023-03-13T06:03:38.466Z,14.30
2023-03-13T06:06:06.081Z,13.55
2023-03-13T06:08:39.320Z,16.25
2023-03-13T06:11:06.313Z,13.77
2023-03-13T06:13:35.226Z,16.15
2023-03-13T06:16:11.198Z,15.43
2023-03-13T06:18:46.150Z,13.93
2023-03-13T06:21:17.103Z,18.67
2023-03-13T06:23:45.005Z,21.85
2023-03-13T06:26:12.099Z,22.30
2023-03-13T06:28:39.099Z,17.23
2023-03-13T06:31:07.801Z,20.98
2023-03-13T06:33:34.827Z,20.70
2023-03-13T06:36:02.454Z,18.08
2023-03-13T06:38:30.557Z,12.77
2023-03-13T06:40:57.904Z,19.77
2023-03-13T06:43:24.800Z,16.48
2023-03-13T06:45:52.254Z,18.85
2023-03-13T06:48:19.533Z,22.60
2023-03-13T06:50:46.601Z,22.15
2023-03-13T06:53:17.197Z,15.88
2023-03-13T06:55:44.724Z,17.35
2023-03-13T06:58:21.781Z,15.18
2023-03-13T07:00:52.093Z,14.02
2023-03-13T07:03:19.028Z,24.95
2023-03-13T07:05:45.975Z,20.58
2023-03-13T07:08:12.783Z,10.60
2023-03-13T07:10:39.782Z,16.25
2023-03-13T07:13:06.832Z,21.58
2023-03-13T07:15:34.982Z,15.15
2023-03-13T07:18:01.821Z,16.33
2023-03-13T07:20:28.670Z,19.92
2023-03-13T07:22:55.550Z,20.13
2023-03-13T07:25:22.633Z,14.85
2023-03-13T07:28:15.058Z,18.02
2023-03-13T07:30:41.842Z,15.90
2023-03-13T07:33:09.039Z,9.20
2023-03-13T07:35:37.838Z,9.88
2023-03-13T07:38:05.994Z,18.48
2023-03-13T07:40:32.863Z,17.80
2023-03-13T07:42:59.597Z,17.95
2023-03-13T07:45:27.833Z,15.05
2023-03-13T07:47:54.653Z,10.63
2023-03-13T07:50:21.335Z,15.07
2023-03-13T07:52:48.279Z,18.20
2023-03-13T07:55:15.322Z,14.02
2023-03-13T07:57:42.234Z,11.43
2023-03-13T08:00:15.251Z,16.17
2023-03-13T08:02:42.256Z,15.77
2023-03-13T08:05:09.379Z,14.60
2023-03-13T08:07:36.387Z,13.35
2023-03-13T08:10:03.287Z,12.30
2023-03-13T08:12:30.410Z,13.68
2023-03-13T08:14:57.895Z,15.60
2023-03-13T08:17:25.014Z,18.95
2023-03-13T08:19:51.815Z,15.57
2023-03-13T08:22:18.682Z,16.38
2023-03-13T08:24:45.608Z,15.80
2023-03-13T08:27:12.407Z,13.48
2023-03-13T08:29:39.956Z,15.93
2023-03-13T08:32:06.845Z,12.95
2023-03-13T08:34:35.460Z,13.27
2023-03-13T08:37:09.966Z,7.82
2023-03-13T08:39:37.224Z,10.35
2023-03-13T08:42:04.426Z,10.95
2023-03-13T08:44:31.254Z,22.67
2023-03-13T08:47:00.262Z,21.10
2023-03-13T08:49:27.469Z,14.30
2023-03-13T08:51:54.353Z,13.57
2023-03-13T08:54:23.683Z,16.05
2023-03-13T08:56:50.464Z,15.52
2023-03-13T08:59:17.564Z,12.30
2023-03-13T09:01:47.607Z,13.88
2023-03-13T09:04:16.737Z,11.05
2023-03-13T09:06:44.012Z,12.95
2023-03-13T09:09:11.117Z,12.30
2023-03-13T09:11:39.781Z,16.60
2023-03-13T09:14:08.261Z,14.73
2023-03-13T09:16:36.503Z,16.95
2023-03-13T09:19:03.225Z,16.65
2023-03-13T09:21:33.031Z,17.40
2023-03-13T09:24:00.813Z,17.05
2023-03-13T09:26:29.203Z,19.77
2023-03-13T09:28:56.494Z,12.38
2023-03-13T09:31:26.677Z,16.13
2023-03-13T09:33:54.441Z,20.45
2023-03-13T09:36:27.116Z,16.95
2023-03-13T09:38:56.473Z,20.75
2023-03-13T09:41:40.559Z,15.43
2023-03-13T09:44:27.030Z,8.13
2023-03-13T09:47:04.339Z,21.85
2023-03-13T09:49:55.969Z,13.20
2023-03-13T09:52:31.071Z,21.02
2023-03-13T09:55:01.016Z,14.90
2023-03-13T09:57:34.916Z,13.35
2023-03-13T10:00:12.886Z,17.45
2023-03-13T10:02:44.119Z,21.33
2023-03-13T10:05:22.478Z,13.20
2023-03-13T10:07:49.770Z,13.63
2023-03-13T10:10:35.053Z,16.77
2023-03-13T10:13:15.873Z,10.10
2023-03-13T10:15:53.015Z,13.60
2023-03-13T10:18:24.939Z,11.50
2023-03-13T10:20:57.060Z,10.52
2023-03-13T10:23:46.717Z,16.42
2023-03-13T10:26:24.924Z,15.63
2023-03-13T10:28:52.423Z,11.32
2023-03-13T10:31:32.285Z,9.43
2023-03-13T10:34:14.583Z,12.20
2023-03-13T10:36:56.982Z,13.68
2023-03-13T10:39:27.052Z,10.35
2023-03-13T10:42:11.126Z,13.05
2023-03-13T10:44:38.309Z,9.63
2023-03-13T10:47:14.061Z,16.40
2023-03-13T10:49:52.729Z,16.90
2023-03-13T10:52:43.296Z,16.55
2023-03-13T10:55:13.794Z,16.08
2023-03-13T10:57:44.639Z,18.13
2023-03-13T11:00:41.394Z,13.10
2023-03-13T11:03:23.360Z,20.50
2023-03-13T11:06:02.116Z,21.80
2023-03-13T11:08:35.060Z,24.42
2023-03-13T11:11:17.396Z,19.30
2023-03-13T11:13:44.704Z,18.67
2023-03-13T11:16:26.793Z,20.05
2023-03-13T11:19:21.043Z,13.00
2023-03-13T11:22:15.076Z,16.90
2023-03-13T11:25:34.385Z,18.20
2023-03-13T11:28:26.458Z,17.17
2023-03-13T11:31:08.591Z,33.75
2023-03-13T11:33:41.383Z,17.23
2023-03-13T11:36:49.996Z,17.58
2023-03-13T11:39:42.127Z,18.42
2023-03-13T11:42:39.478Z,16.23
2023-03-13T11:45:28.249Z,16.30
2023-03-13T11:48:11.301Z,19.63
2023-03-13T11:51:07.264Z,14.70
2023-03-13T11:53:49.547Z,17.15
2023-03-13T11:56:42.730Z,25.58
2023-03-13T11:59:29.884Z,14.02
2023-03-13T12:02:04.243Z,21.52
2023-03-13T12:04:45.778Z,19.30
2023-03-13T12:07:30.269Z,10.73
2023-03-13T12:10:05.850Z,16.65
2023-03-13T12:13:01.350Z,21.92
2023-03-13T12:15:30.264Z,20.17
2023-03-13T12:18:03.712Z,16.58
2023-03-13T12:20:47.681Z,17.48
2023-03-13T12:23:21.014Z,23.30
2023-03-13T12:25:55.488Z,16.27
2023-03-13T12:28:41.848Z,16.15
2023-03-13T12:31:34.341Z,18.73
2023-03-13T12:34:17.361Z,23.63
2023-03-13T12:36:52.982Z,26.05
2023-03-13T12:39:32.430Z,24.25
2023-03-13T12:42:33.295Z,20.48
2023-03-13T12:45:00.632Z,23.77
2023-03-13T12:47:35.821Z,20.85
2023-03-13T12:50:18.237Z,24.27
2023-03-13T12:53:06.028Z,23.83
2023-03-13T12:56:02.877Z,22.35
2023-03-13T12:58:38.007Z,17.00
2023-03-13T13:01:07.217Z,17.83
2023-03-13T13:03:45.338Z,14.68
2023-03-13T13:06:15.354Z,27.77
2023-03-13T13:08:49.403Z,19.02
2023-03-13T13:11:34.939Z,17.33
2023-03-13T13:14:07.238Z,27.58
2023-03-13T13:16:34.367Z,24.92
2023-03-13T13:19:21.546Z,20.70
2023-03-13T13:22:27.039Z,14.05
2023-03-13T13:25:24.429Z,21.73
2023-03-13T13:27:52.385Z,17.63
2023-03-13T13:30:19.404Z,21.60
2023-03-13T13:32:57.061Z,26.10
2023-03-13T13:38:19.778Z,21.02
2023-03-13T13:41:25.919Z,31.67
2023-03-13T13:44:22.624Z,25.42
2023-03-13T13:46:50.191Z,19.73
2023-03-13T13:49:22.776Z,21.85
2023-03-13T13:52:04.660Z,29.40
2023-03-13T13:54:33.636Z,22.02
2023-03-13T13:57:31.901Z,24.13
2023-03-13T14:00:20.038Z,28.48
2023-03-13T14:02:55.539Z,34.10
2023-03-13T14:05:28.683Z,22.63
2023-03-13T14:08:21.256Z,24.27
2023-03-13T14:11:26.768Z,29.55
2023-03-13T14:14:14.262Z,27.35
2023-03-13T14:16:50.958Z,37.20
2023-03-13T14:19:38.054Z,29.20
2023-03-13T14:22:10.302Z,21.75
2023-03-13T14:24:37.843Z,25.48
2023-03-13T14:27:19.695Z,20.42
2023-03-13T14:30:09.602Z,18.40
2023-03-13T14:32:37.271Z,39.15
2023-03-13T14:35:09.682Z,25.92
2023-03-13T14:37:42.779Z,21.98
2023-03-13T14:40:24.542Z,34.92
2023-03-13T14:42:55.197Z,28.48
2023-03-13T14:45:39.410Z,24.48
2023-03-13T14:48:21.201Z,29.75
2023-03-13T14:50:49.648Z,24.90
2023-03-13T14:53:22.152Z,18.90
2023-03-13T14:56:09.941Z,22.08
2023-03-13T14:58:37.134Z,36.75
2023-03-13T15:01:26.090Z,20.77
2023-03-13T15:03:53.715Z,25.27
2023-03-13T15:06:22.499Z,21.80
2023-03-13T15:09:14.456Z,25.40
2023-03-13T15:11:58.081Z,23.05
2023-03-13T15:19:28.537Z,22.10
2023-03-13T15:21:55.719Z,22.58
2023-03-13T15:24:23.227Z,20.98
2023-03-13T15:26:51.415Z,18.27
2023-03-13T15:29:18.899Z,19.90
2023-03-13T15:31:46.647Z,25.40
2023-03-13T15:34:14.975Z,18.35
2023-03-13T15:36:42.719Z,26.70
2023-03-13T15:39:21.393Z,20.05
2023-03-13T15:41:48.231Z,23.67
2023-03-13T15:44:15.529Z,15.77
2023-03-13T15:46:42.963Z,19.40
2023-03-13T15:49:13.216Z,20.60
2023-03-13T15:51:41.353Z,22.17
2023-03-13T15:54:08.645Z,18.00
2023-03-13T15:56:38.016Z,22.10
2023-03-13T15:59:13.330Z,22.75
2023-03-13T16:01:41.557Z,17.15
2023-03-13T16:04:10.020Z,19.33
2023-03-13T16:06:37.058Z,21.50
2023-03-13T16:09:06.778Z,19.33
2023-03-13T16:11:34.349Z,25.67
2023-03-13T16:14:01.301Z,17.77
2023-03-13T16:16:31.240Z,14.88
2023-03-13T16:18:59.038Z,24.60
2023-03-13T16:21:31.928Z,17.35
2023-03-13T16:23:59.054Z,24.23
2023-03-13T16:26:28.981Z,31.98
2023-03-13T16:28:55.936Z,29.70
2023-03-13T16:31:25.851Z,19.63
2023-03-13T16:33:55.985Z,24.35
2023-03-13T16:36:25.661Z,23.15
2023-03-13T16:38:55.225Z,29.00
2023-03-13T16:41:27.739Z,20.33
2023-03-13T16:43:55.821Z,23.42
2023-03-13T16:46:27.847Z,17.95
2023-03-13T16:48:57.324Z,30.63
2023-03-13T16:51:26.795Z,21.83
2023-03-13T16:53:56.328Z,20.40
2023-03-13T16:56:40.134Z,27.42
2023-03-13T17:01:38.044Z,29.90
2023-03-13T17:04:08.475Z,18.80
2023-03-13T17:06:42.283Z,26.75
2023-03-13T17:09:15.669Z,31.25
2023-03-13T17:11:44.076Z,31.55
2023-03-13T17:14:11.560Z,21.27
2023-03-13T17:16:45.385Z,21.92
2023-03-13T17:19:17.140Z,30.75
2023-03-13T17:21:44.135Z,24.75
2023-03-13T17:24:11.138Z,24.25
2023-03-13T17:26:40.074Z,24.15
2023-03-13T17:29:08.472Z,26.95
2023-03-13T17:31:38.703Z,27.70
2023-03-13T17:34:06.731Z,24.50
2023-03-13T17:36:35.216Z,24.13
2023-03-13T17:39:04.704Z,32.33
2023-03-13T17:41:34.564Z,22.83
2023-03-13T17:44:03.905Z,24.23
2023-03-13T17:46:37.401Z,21.60
2023-03-13T17:49:04.564Z,33.05
2023-03-13T17:51:33.502Z,24.77
2023-03-13T17:54:00.928Z,39.65
2023-03-13T17:56:32.293Z,28.42
2023-03-13T17:59:01.157Z,36.33
2023-03-13T18:01:31.502Z,26.50
2023-03-13T18:04:03.205Z,29.55
2023-03-13T18:06:30.058Z,23.50
2023-03-13T18:09:12.113Z,27.25
2023-03-13T18:11:39.398Z,26.45
2023-03-13T18:14:06.762Z,25.88
2023-03-13T18:16:38.414Z,27.48
2023-03-13T18:19:08.551Z,24.75
2023-03-13T18:21:36.751Z,22.60
2023-03-13T18:24:17.903Z,25.05
2023-03-13T18:26:46.942Z,17.88
2023-03-13T18:29:17.870Z,27.77
2023-03-13T18:31:45.767Z,29.42
2023-03-13T18:34:12.787Z,25.02
2023-03-13T18:36:40.162Z,26.15
2023-03-13T18:39:07.378Z,23.48
2023-03-13T18:41:34.844Z,29.70
2023-03-13T18:44:01.903Z,26.08
2023-03-13T18:46:31.956Z,28.65
2023-03-13T18:49:00.749Z,17.63
2023-03-13T18:51:28.732Z,19.73
2023-03-13T18:53:55.734Z,29.90
2023-03-13T18:56:31.111Z,20.45
2023-03-13T18:58:59.068Z,26.85
2023-03-13T19:01:30.178Z,20.88
2023-03-13T19:04:00.005Z,24.40
2023-03-13T19:06:35.573Z,33.47
2023-03-13T19:09:20.813Z,26.27
2023-03-13T19:11:53.970Z,21.95
2023-03-13T19:14:24.266Z,20.48
2023-03-13T19:16:55.631Z,27.58
2023-03-13T19:19:23.950Z,29.40
2023-03-13T19:21:52.601Z,21.35
2023-03-13T19:24:19.381Z,27.95
2023-03-13T19:26:49.944Z,26.48
2023-03-13T19:29:22.882Z,28.90
2023-03-13T19:31:50.615Z,32.35
2023-03-13T19:34:17.544Z,23.95
2023-03-13T19:36:47.312Z,18.30
2023-03-13T19:39:27.466Z,25.17
2023-03-13T19:41:54.600Z,32.58
2023-03-13T19:44:24.451Z,18.20
2023-03-13T19:46:54.814Z,22.15
2023-03-13T19:49:22.028Z,28.73
2023-03-13T19:51:49.078Z,24.92
2023-03-13T19:54:17.177Z,21.00
2023-03-13T19:56:47.374Z,17.98
2023-03-13T19:59:21.552Z,23.27
2023-03-13T20:01:48.506Z,20.33
2023-03-13T20:04:16.294Z,26.95
2023-03-13T20:06:44.729Z,18.65
2023-03-13T20:09:17.880Z,28.92
2023-03-13T20:11:44.957Z,16.23
2023-03-13T20:14:12.414Z,21.88
2023-03-13T20:16:39.552Z,29.75
2023-03-13T20:19:06.564Z,26.73
2023-03-13T20:21:36.745Z,25.80
2023-03-13T20:24:03.814Z,20.10
2023-03-13T20:26:30.963Z,15.55
2023-03-13T20:28:58.269Z,25.33
2023-03-13T20:31:29.444Z,30.85
2023-03-13T20:33:57.225Z,21.92
2023-03-13T20:36:32.284Z,24.83
2023-03-13T20:38:59.134Z,18.85
2023-03-13T20:41:31.335Z,23.58
2023-03-13T20:43:58.730Z,15.82
2023-03-13T20:46:27.002Z,22.02
2023-03-13T20:48:54.009Z,27.15
2023-03-13T20:51:21.269Z,24.67
2023-03-13T20:53:48.428Z,25.58
2023-03-13T20:56:15.184Z,24.42
2023-03-13T20:58:42.132Z,27.15
2023-03-13T21:01:09.337Z,27.15
2023-03-13T21:03:38.518Z,17.88
2023-03-13T21:06:13.172Z,26.63
2023-03-13T21:08:49.328Z,15.57
2023-03-13T21:11:22.066Z,20.27
2023-03-13T21:13:51.516Z,22.17
2023-03-13T21:16:20.100Z,21.10
2023-03-13T21:18:47.984Z,26.20
2023-03-13T21:21:18.991Z,23.52
2023-03-13T21:23:46.781Z,23.27
2023-03-13T21:26:15.262Z,22.70
2023-03-13T21:28:42.311Z,23.38
2023-03-13T21:31:12.237Z,21.27
2023-03-13T21:33:41.225Z,17.25
2023-03-13T21:36:09.360Z,14.23
2023-03-13T21:38:36.646Z,15.45
2023-03-13T21:41:15.070Z,21.48
2023-03-13T21:44:56.562Z,15.00
2023-03-13T21:47:26.353Z,19.55
2023-03-13T21:49:55.140Z,19.35
2023-03-13T21:52:23.411Z,10.70
2023-03-13T21:54:51.073Z,10.63
2023-03-13T21:57:18.204Z,15.43
2023-03-13T21:59:45.110Z,16.90
2023-03-13T22:02:14.504Z,11.77
2023-03-13T22:04:43.991Z,22.30
2023-03-13T22:07:10.844Z,15.52
2023-03-13T22:09:37.846Z,17.17
2023-03-13T22:12:05.002Z,16.00
2023-03-13T22:14:31.798Z,12.82
2023-03-13T22:17:00.045Z,17.30
2023-03-13T22:19:27.152Z,18.45
2023-03-13T22:21:53.887Z,10.13
2023-03-13T22:24:22.153Z,14.10
2023-03-13T22:26:49.064Z,12.98
2023-03-13T22:29:16.145Z,19.05
2023-03-13T22:31:43.357Z,19.70
2023-03-13T22:34:10.214Z,17.80
2023-03-13T22:36:38.259Z,10.57
2023-03-13T22:39:05.500Z,13.18
2023-03-13T22:41:32.554Z,11.27
2023-03-13T22:44:01.762Z,15.88
2023-03-13T22:46:28.654Z,13.15
2023-03-13T22:48:56.627Z,13.48
2023-03-13T22:51:23.784Z,14.52
2023-03-13T22:53:50.582Z,14.52
2023-03-13T22:56:20.019Z,14.98
2023-03-13T22:58:47.673Z,15.35
2023-03-13T23:01:16.983Z,5.85
2023-03-13T23:03:45.049Z,15.93
2023-03-13T23:06:17.363Z,13.35
2023-03-13T23:08:44.990Z,15.52
2023-03-13T23:11:12.231Z,17.65
2023-03-13T23:13:39.138Z,16.38
2023-03-13T23:16:09.238Z,18.30
2023-03-13T23:18:37.271Z,17.15
2023-03-13T23:21:07.218Z,20.52
2023-03-13T23:23:34.738Z,13.30
2023-03-13T23:26:03.779Z,13.57
2023-03-13T23:28:30.976Z,17.80
2023-03-13T23:30:57.902Z,14.32
2023-03-13T23:33:24.758Z,14.48
2023-03-13T23:35:51.664Z,14.10
2023-03-13T23:38:24.026Z,14.05
2023-03-13T23:40:50.971Z,11.38
2023-03-13T23:43:17.762Z,10.18
2023-03-13T23:45:44.603Z,18.50
2023-03-13T23:48:11.331Z,9.85
2023-03-13T23:50:38.482Z,16.85
2023-03-13T23:53:05.390Z,13.63
2023-03-13T23:55:32.808Z,14.05
2023-03-13T23:58:00.211Z,10.57
